createdAt,value
2022-12-17T00:00:59.457Z,-3.19
2022-12-17T00:03:43.086Z,-3.11
2022-12-17T00:06:26.600Z,-3.04
2022-12-17T00:09:09.804Z,-2.99
2022-12-17T00:11:52.600Z,-2.93
2022-12-17T00:14:39.433Z,-2.94
2022-12-17T00:17:22.129Z,-2.98
2022-12-17T00:20:05.688Z,-3.05
2022-12-17T00:22:48.782Z,-3.07
2022-12-17T00:25:31.923Z,-3.09
2022-12-17T00:28:14.927Z,-3.12
2022-12-17T00:31:09.736Z,-3.16
2022-12-17T00:33:52.725Z,-3.19
2022-12-17T00:36:35.092Z,-3.22
2022-12-17T00:39:19.550Z,-3.24
2022-12-17T00:42:02.953Z,-3.29
2022-12-17T00:44:45.986Z,-3.31
2022-12-17T00:47:29.488Z,-3.31
2022-12-17T00:50:12.953Z,-3.28
2022-12-17T00:52:57.722Z,-3.23
2022-12-17T00:55:46.361Z,-3.17
2022-12-17T00:58:29.757Z,-3.12
2022-12-17T01:01:16.357Z,-3.08
2022-12-17T01:03:59.262Z,-3.06
2022-12-17T01:06:41.484Z,-3.06
2022-12-17T01:09:24.811Z,-3.05
2022-12-17T01:12:07.881Z,-3.05
2022-12-17T01:14:51.709Z,-3.03
2022-12-17T01:17:34.708Z,-3.04
2022-12-17T01:20:17.514Z,-3.06
2022-12-17T01:23:00.445Z,-3.10
2022-12-17T01:25:43.492Z,-3.15
2022-12-17T01:28:27.009Z,-3.21
2022-12-17T01:31:10.097Z,-3.25
2022-12-17T01:33:53.231Z,-3.31
2022-12-17T01:36:36.544Z,-3.33
2022-12-17T01:39:19.614Z,-3.31
2022-12-17T01:42:02.832Z,-3.26
2022-12-17T01:45:14.057Z,-3.19
2022-12-17T01:47:58.365Z,-3.15
2022-12-17T01:50:42.638Z,-3.14
2022-12-17T01:53:26.365Z,-3.14
2022-12-17T01:56:09.517Z,-3.19
2022-12-17T01:58:52.935Z,-3.23
2022-12-17T02:01:36.710Z,-3.24
2022-12-17T02:04:19.652Z,-3.27
2022-12-17T02:07:07.642Z,-3.29
2022-12-17T02:09:55.757Z,-3.33
2022-12-17T02:12:43.703Z,-3.38
2022-12-17T02:15:31.265Z,-3.45
2022-12-17T02:18:17.348Z,-3.51
2022-12-17T02:21:03.399Z,-3.52
2022-12-17T02:23:54.601Z,-3.53
2022-12-17T02:26:40.303Z,-3.55
2022-12-17T02:29:25.489Z,-3.57
2022-12-17T02:32:08.808Z,-3.55
2022-12-17T02:35:16.009Z,-3.52
2022-12-17T02:38:04.210Z,-3.51
2022-12-17T02:40:47.596Z,-3.49
2022-12-17T02:43:30.893Z,-3.51
2022-12-17T02:46:22.555Z,-3.55
2022-12-17T02:49:07.639Z,-3.60
2022-12-17T02:51:50.857Z,-3.64
2022-12-17T02:54:34.004Z,-3.67
2022-12-17T02:57:17.336Z,-3.70
2022-12-17T03:00:00.801Z,-3.72
2022-12-17T03:02:43.944Z,-3.73
2022-12-17T03:05:44.589Z,-3.74
2022-12-17T03:08:28.607Z,-3.74
2022-12-17T03:11:12.497Z,-3.73
2022-12-17T03:13:55.634Z,-3.75
2022-12-17T03:16:38.709Z,-3.72
2022-12-17T03:19:21.919Z,-3.69
2022-12-17T03:22:04.959Z,-3.68
2022-12-17T03:24:49.438Z,-3.69
2022-12-17T03:27:32.468Z,-3.69
2022-12-17T03:30:15.825Z,-3.70
2022-12-17T03:33:10.425Z,-3.74
2022-12-17T03:35:53.892Z,-3.76
2022-12-17T03:38:36.947Z,-3.77
2022-12-17T03:41:16.304Z,-3.78
2022-12-17T03:43:59.420Z,-3.80
2022-12-17T03:46:42.401Z,-3.83
2022-12-17T03:49:25.419Z,-3.86
2022-12-17T03:52:08.560Z,-3.87
2022-12-17T03:54:51.551Z,-3.88
2022-12-17T03:57:34.912Z,-3.89
2022-12-17T04:00:17.780Z,-3.95
2022-12-17T04:03:01.005Z,-3.96
2022-12-17T04:05:44.631Z,-3.98
2022-12-17T04:08:28.298Z,-3.99
2022-12-17T04:11:11.424Z,-4.00
2022-12-17T04:13:55.067Z,-4.01
2022-12-17T04:16:37.626Z,-4.02
2022-12-17T04:19:20.634Z,-4.05
2022-12-17T04:22:03.396Z,-4.07
2022-12-17T04:24:46.681Z,-4.11
2022-12-17T04:27:29.635Z,-4.14
2022-12-17T04:30:24.291Z,-4.16
2022-12-17T04:33:06.965Z,-4.15
2022-12-17T04:35:49.905Z,-4.19
2022-12-17T04:38:33.345Z,-4.25
2022-12-17T04:41:16.593Z,-4.24
2022-12-17T04:44:02.911Z,-4.21
2022-12-17T04:46:46.840Z,-4.21
2022-12-17T04:49:29.915Z,-4.20
2022-12-17T04:52:12.949Z,-4.19
2022-12-17T04:54:55.957Z,-4.19
2022-12-17T04:57:39.439Z,-4.16
2022-12-17T05:00:22.409Z,-4.09
2022-12-17T05:03:06.101Z,-4.02
2022-12-17T05:05:49.184Z,-3.94
2022-12-17T05:08:35.678Z,-3.89
2022-12-17T05:11:23.035Z,-3.83
2022-12-17T05:14:06.347Z,-3.77
2022-12-17T05:16:49.415Z,-3.71
2022-12-17T05:19:32.632Z,-3.65
2022-12-17T05:22:15.370Z,-3.66
2022-12-17T05:24:54.713Z,-3.72
2022-12-17T05:27:37.838Z,-3.76
2022-12-17T05:30:20.664Z,-3.86
2022-12-17T05:33:03.824Z,-3.95
2022-12-17T05:35:46.859Z,-4.01
2022-12-17T05:38:30.148Z,-4.07
2022-12-17T05:41:14.184Z,-4.12
2022-12-17T05:43:57.125Z,-4.18
2022-12-17T05:46:40.433Z,-4.23
2022-12-17T05:49:23.537Z,-4.28
2022-12-17T05:52:06.574Z,-4.32
2022-12-17T05:54:49.653Z,-4.39
2022-12-17T05:57:33.262Z,-4.42
2022-12-17T06:00:16.420Z,-4.39
2022-12-17T06:03:14.322Z,-4.33
2022-12-17T06:05:57.363Z,-4.31
2022-12-17T06:08:40.842Z,-4.33
2022-12-17T06:11:23.832Z,-4.34
2022-12-17T06:14:06.693Z,-4.31
2022-12-17T06:16:49.879Z,-4.29
2022-12-17T06:19:33.107Z,-4.31
2022-12-17T06:22:16.118Z,-4.36
2022-12-17T06:24:59.365Z,-4.38
2022-12-17T06:27:42.603Z,-4.37
2022-12-17T06:30:26.352Z,-4.35
2022-12-17T06:33:09.090Z,-4.33
2022-12-17T06:35:52.524Z,-4.29
2022-12-17T06:38:35.497Z,-4.25
2022-12-17T06:41:20.667Z,-4.27
2022-12-17T06:44:03.500Z,-4.30
2022-12-17T06:46:46.333Z,-4.30
2022-12-17T06:49:29.522Z,-4.27
2022-12-17T06:52:27.171Z,-4.24
2022-12-17T06:55:10.425Z,-4.20
2022-12-17T06:57:53.504Z,-4.16
2022-12-17T07:00:36.992Z,-4.13
2022-12-17T07:03:20.370Z,-4.15
2022-12-17T07:06:03.786Z,-4.14
2022-12-17T07:08:47.215Z,-4.16
2022-12-17T07:11:30.271Z,-4.19
2022-12-17T07:14:13.308Z,-4.21
2022-12-17T07:16:56.467Z,-4.28
2022-12-17T07:19:39.662Z,-4.40
2022-12-17T07:22:22.622Z,-4.51
2022-12-17T07:25:05.742Z,-4.57
2022-12-17T07:27:49.128Z,-4.60
2022-12-17T07:30:32.270Z,-4.58
2022-12-17T07:33:21.150Z,-4.55
2022-12-17T07:36:00.566Z,-4.51
2022-12-17T07:38:43.179Z,-4.49
2022-12-17T07:41:26.789Z,-4.44
2022-12-17T07:44:10.055Z,-4.42
2022-12-17T07:46:53.576Z,-4.42
2022-12-17T07:49:36.476Z,-4.40
2022-12-17T07:52:19.500Z,-4.41
2022-12-17T07:55:02.413Z,-4.42
2022-12-17T07:57:45.661Z,-4.48
2022-12-17T08:00:29.762Z,-4.53
2022-12-17T08:03:16.639Z,-4.59
2022-12-17T08:05:59.649Z,-4.69
2022-12-17T08:08:42.667Z,-4.76
2022-12-17T08:11:25.589Z,-4.80
2022-12-17T08:14:09.692Z,-4.84
2022-12-17T08:16:52.825Z,-4.84
2022-12-17T08:19:37.036Z,-4.80
2022-12-17T08:22:20.228Z,-4.80
2022-12-17T08:24:59.680Z,-4.81
2022-12-17T08:27:42.628Z,-4.84
2022-12-17T08:30:26.236Z,-4.82
2022-12-17T08:33:09.344Z,-4.80
2022-12-17T08:35:48.708Z,-4.79
2022-12-17T08:38:31.609Z,-4.79
2022-12-17T08:41:14.776Z,-4.79
2022-12-17T08:43:57.764Z,-4.84
2022-12-17T08:46:40.540Z,-4.83
2022-12-17T08:49:23.870Z,-4.82
2022-12-17T08:52:07.219Z,-4.79
2022-12-17T08:54:50.122Z,-4.74
2022-12-17T08:57:33.195Z,-4.71
2022-12-17T09:00:16.550Z,-4.68
2022-12-17T09:02:59.966Z,-4.64
2022-12-17T09:05:43.034Z,-4.57
2022-12-17T09:08:22.824Z,-4.51
2022-12-17T09:11:06.069Z,-4.50
2022-12-17T09:13:49.476Z,-4.51
2022-12-17T09:16:32.511Z,-4.51
2022-12-17T09:19:15.522Z,-4.56
2022-12-17T09:21:58.843Z,-4.59
2022-12-17T09:24:42.338Z,-4.57
2022-12-17T09:27:25.850Z,-4.59
2022-12-17T09:30:09.519Z,-4.62
2022-12-17T09:32:54.759Z,-4.66
2022-12-17T09:35:37.752Z,-4.65
2022-12-17T09:38:21.290Z,-4.64
2022-12-17T09:41:07.629Z,-4.66
2022-12-17T09:43:54.887Z,-4.66
2022-12-17T09:46:45.343Z,-4.63
2022-12-17T09:49:34.953Z,-4.62
2022-12-17T09:52:18.087Z,-4.58
2022-12-17T09:55:03.097Z,-4.54
2022-12-17T09:57:47.794Z,-4.54
2022-12-17T10:00:35.044Z,-4.52
2022-12-17T10:03:18.163Z,-4.46
2022-12-17T10:06:02.667Z,-4.40
2022-12-17T10:08:46.426Z,-4.37
2022-12-17T10:11:37.404Z,-4.32
2022-12-17T10:14:20.937Z,-4.20
2022-12-17T10:17:09.899Z,-4.12
2022-12-17T10:19:56.971Z,-4.06
2022-12-17T10:22:40.546Z,-4.05
2022-12-17T10:25:24.135Z,-4.05
2022-12-17T10:28:07.437Z,-4.08
2022-12-17T10:30:51.061Z,-4.10
2022-12-17T10:33:37.862Z,-4.11
2022-12-17T10:36:21.293Z,-4.12
2022-12-17T10:39:12.322Z,-4.15
2022-12-17T10:41:59.376Z,-4.20
2022-12-17T10:44:45.219Z,-4.26
2022-12-17T10:47:31.590Z,-4.27
2022-12-17T10:50:17.013Z,-4.27
2022-12-17T10:53:03.074Z,-4.29
2022-12-17T10:55:47.341Z,-4.35
2022-12-17T10:58:32.105Z,-4.40
2022-12-17T11:01:21.136Z,-4.44
2022-12-17T11:04:08.456Z,-4.46
2022-12-17T11:06:53.031Z,-4.49
2022-12-17T11:09:43.211Z,-4.51
2022-12-17T11:12:31.160Z,-4.51
2022-12-17T11:15:16.035Z,-4.51
2022-12-17T11:17:59.699Z,-4.50
2022-12-17T11:20:44.771Z,-4.49
2022-12-17T11:23:33.181Z,-4.46
2022-12-17T11:26:18.601Z,-4.48
2022-12-17T11:29:01.885Z,-4.51
2022-12-17T11:31:57.397Z,-4.51
2022-12-17T11:34:44.980Z,-4.40
2022-12-17T11:37:33.630Z,-4.39
2022-12-17T11:40:20.913Z,-4.40
2022-12-17T11:43:08.745Z,-4.41
2022-12-17T11:45:55.593Z,-4.40
2022-12-17T11:48:42.450Z,-4.40
2022-12-17T11:51:28.282Z,-4.36
2022-12-17T11:54:16.315Z,-4.31
2022-12-17T11:57:02.498Z,-4.27
2022-12-17T11:59:53.265Z,-4.22
2022-12-17T12:02:54.263Z,-4.21
2022-12-17T12:05:43.887Z,-4.17
2022-12-17T12:08:28.820Z,-4.12
2022-12-17T12:11:16.411Z,-4.11
2022-12-17T12:14:03.385Z,-4.10
2022-12-17T12:16:51.956Z,-4.13
2022-12-17T12:19:38.212Z,-4.15
2022-12-17T12:22:30.751Z,-4.17
2022-12-17T12:25:30.314Z,-4.22
2022-12-17T12:28:21.095Z,-4.29
2022-12-17T12:31:10.109Z,-4.33
2022-12-17T12:33:57.198Z,-4.34
2022-12-17T12:36:42.468Z,-4.35
2022-12-17T12:39:29.283Z,-4.35
2022-12-17T12:42:13.689Z,-4.33
2022-12-17T12:45:01.647Z,-4.30
2022-12-17T12:47:49.335Z,-4.32
2022-12-17T12:50:36.523Z,-4.32
2022-12-17T12:53:19.802Z,-4.29
2022-12-17T12:56:03.451Z,-4.29
2022-12-17T12:58:47.381Z,-4.26
2022-12-17T13:01:26.787Z,-4.26
2022-12-17T13:04:11.686Z,-4.26
2022-12-17T13:06:40.816Z,-4.22
2022-12-17T13:09:07.890Z,-4.20
2022-12-17T13:11:38.273Z,-4.19
2022-12-17T13:14:08.199Z,-4.19
2022-12-17T13:16:38.824Z,-4.17
2022-12-17T13:19:05.857Z,-4.16
2022-12-17T13:21:31.956Z,-4.14
2022-12-17T13:23:57.640Z,-4.14
2022-12-17T13:26:25.030Z,-4.16
2022-12-17T13:28:59.416Z,-4.17
2022-12-17T13:31:27.764Z,-4.18
2022-12-17T13:33:57.944Z,-4.20
2022-12-17T13:36:27.895Z,-4.24
2022-12-17T13:38:57.592Z,-4.27
2022-12-17T13:41:27.912Z,-4.28
2022-12-17T13:43:54.705Z,-4.28
2022-12-17T13:46:21.672Z,-4.28
2022-12-17T13:48:53.015Z,-4.27
2022-12-17T13:51:21.115Z,-4.27
2022-12-17T13:53:52.391Z,-4.28
2022-12-17T13:56:23.048Z,-4.31
2022-12-17T13:58:51.692Z,-4.32
2022-12-17T14:01:17.352Z,-4.35
2022-12-17T14:04:05.195Z,-4.36
2022-12-17T14:06:34.277Z,-4.39
2022-12-17T14:09:00.250Z,-4.40
2022-12-17T14:11:39.727Z,-4.40
2022-12-17T14:14:05.667Z,-4.41
2022-12-17T14:16:31.361Z,-4.45
2022-12-17T14:18:57.854Z,-4.50
2022-12-17T14:21:24.120Z,-4.50
2022-12-17T14:23:50.587Z,-4.53
2022-12-17T14:26:16.106Z,-4.56
2022-12-17T14:28:50.432Z,-4.63
2022-12-17T14:31:28.186Z,-4.64
2022-12-17T14:34:07.492Z,-4.65
2022-12-17T14:36:33.744Z,-4.68
2022-12-17T14:39:00.463Z,-4.68
2022-12-17T14:41:43.975Z,-4.75
2022-12-17T14:44:21.380Z,-4.81
2022-12-17T14:46:47.514Z,-4.83
2022-12-17T14:49:18.391Z,-4.88
2022-12-17T14:51:44.153Z,-4.96
2022-12-17T14:54:20.883Z,-5.01
2022-12-17T14:56:47.060Z,-5.04
2022-12-17T14:59:25.232Z,-5.07
2022-12-17T15:01:55.726Z,-5.09
2022-12-17T15:04:22.414Z,-5.12
2022-12-17T15:06:48.016Z,-5.15
2022-12-17T15:09:14.567Z,-5.19
2022-12-17T15:11:39.994Z,-5.20
2022-12-17T15:14:05.573Z,-5.20
2022-12-17T15:16:31.880Z,-5.19
2022-12-17T15:18:57.285Z,-5.17
2022-12-17T15:21:23.066Z,-5.15
2022-12-17T15:23:48.930Z,-5.15
2022-12-17T15:26:15.271Z,-5.15
2022-12-17T15:28:40.845Z,-5.14
2022-12-17T15:31:07.387Z,-5.12
2022-12-17T15:33:33.002Z,-5.11
2022-12-17T15:35:58.628Z,-5.11
2022-12-17T15:38:24.788Z,-5.09
2022-12-17T15:40:50.136Z,-5.08
2022-12-17T15:43:16.068Z,-5.06
2022-12-17T15:45:42.263Z,-5.02
2022-12-17T15:48:07.738Z,-5.01
2022-12-17T15:50:33.316Z,-4.97
2022-12-17T15:52:58.974Z,-4.91
2022-12-17T15:55:24.643Z,-4.86
2022-12-17T15:57:50.107Z,-4.83
2022-12-17T16:00:16.328Z,-4.82
2022-12-17T16:02:42.156Z,-4.82
2022-12-17T16:05:08.568Z,-4.87
2022-12-17T16:07:34.273Z,-4.92
2022-12-17T16:10:04.767Z,-5.00
2022-12-17T16:12:30.359Z,-5.07
2022-12-17T16:14:56.056Z,-5.14
2022-12-17T16:17:21.850Z,-5.19
2022-12-17T16:19:47.230Z,-5.25
2022-12-17T16:22:12.754Z,-5.29
2022-12-17T16:24:38.334Z,-5.33
2022-12-17T16:27:04.814Z,-5.37
2022-12-17T16:29:30.533Z,-5.42
2022-12-17T16:31:56.437Z,-5.49
2022-12-17T16:34:21.841Z,-5.54
2022-12-17T16:36:47.326Z,-5.57
2022-12-17T16:39:16.147Z,-5.62
2022-12-17T16:41:41.783Z,-5.68
2022-12-17T16:44:07.348Z,-5.73
2022-12-17T16:46:34.344Z,-5.76
2022-12-17T16:49:00.736Z,-5.79
2022-12-17T16:51:29.165Z,-5.86
2022-12-17T16:53:55.312Z,-5.91
2022-12-17T16:56:22.010Z,-5.91
2022-12-17T16:58:47.876Z,-5.91
2022-12-17T17:01:14.031Z,-5.90
2022-12-17T17:03:41.739Z,-5.88
2022-12-17T17:06:07.851Z,-5.85
2022-12-17T17:08:33.259Z,-5.83
2022-12-17T17:10:58.812Z,-5.80
2022-12-17T17:13:24.519Z,-5.78
2022-12-17T17:15:49.952Z,-5.76
2022-12-17T17:18:15.367Z,-5.78
2022-12-17T17:20:40.856Z,-5.76
2022-12-17T17:23:06.161Z,-5.75
2022-12-17T17:25:50.624Z,-5.76
2022-12-17T17:28:16.966Z,-5.79
2022-12-17T17:30:42.506Z,-5.85
2022-12-17T17:33:07.813Z,-5.88
2022-12-17T17:35:33.414Z,-5.91
2022-12-17T17:37:58.937Z,-5.94
2022-12-17T17:40:24.503Z,-5.96
2022-12-17T17:42:53.008Z,-5.97
2022-12-17T17:45:18.735Z,-6.01
2022-12-17T17:47:44.147Z,-6.02
2022-12-17T17:50:10.217Z,-6.01
2022-12-17T17:52:35.813Z,-6.01
2022-12-17T17:55:01.246Z,-5.99
2022-12-17T17:57:26.760Z,-5.98
2022-12-17T17:59:52.139Z,-5.97
2022-12-17T18:02:17.747Z,-5.97
2022-12-17T18:04:43.413Z,-5.97
2022-12-17T18:07:25.136Z,-5.96
2022-12-17T18:09:51.696Z,-5.96
2022-12-17T18:12:34.756Z,-5.94
2022-12-17T18:15:17.309Z,-5.95
2022-12-17T18:17:44.451Z,-5.95
2022-12-17T18:20:11.549Z,-5.97
2022-12-17T18:22:36.833Z,-5.98
2022-12-17T18:25:02.525Z,-5.98
2022-12-17T18:27:27.911Z,-5.95
2022-12-17T18:29:53.761Z,-5.93
2022-12-17T18:32:19.075Z,-5.93
2022-12-17T18:34:44.650Z,-5.94
2022-12-17T18:37:10.064Z,-5.92
2022-12-17T18:39:36.745Z,-5.89
2022-12-17T18:42:19.792Z,-5.86
2022-12-17T18:44:45.353Z,-5.81
2022-12-17T18:47:11.333Z,-5.76
2022-12-17T18:49:37.003Z,-5.71
2022-12-17T18:52:02.653Z,-5.69
2022-12-17T18:54:29.983Z,-5.68
2022-12-17T18:57:01.927Z,-5.67
2022-12-17T18:59:29.395Z,-5.67
2022-12-17T19:01:56.559Z,-5.63
2022-12-17T19:04:22.843Z,-5.56
2022-12-17T19:06:51.792Z,-5.51
2022-12-17T19:09:19.008Z,-5.45
2022-12-17T19:11:45.788Z,-5.39
2022-12-17T19:14:11.324Z,-5.34
2022-12-17T19:16:36.723Z,-5.29
2022-12-17T19:19:03.425Z,-5.25
2022-12-17T19:21:29.087Z,-5.22
2022-12-17T19:23:58.399Z,-5.19
2022-12-17T19:26:23.952Z,-5.17
2022-12-17T19:28:50.206Z,-5.14
2022-12-17T19:31:16.727Z,-5.11
2022-12-17T19:33:42.346Z,-5.10
2022-12-17T19:36:12.496Z,-5.09
2022-12-17T19:38:38.371Z,-5.06
2022-12-17T19:41:08.408Z,-5.04
2022-12-17T19:43:34.009Z,-5.02
2022-12-17T19:46:04.368Z,-4.99
2022-12-17T19:48:31.074Z,-4.96
2022-12-17T19:50:59.947Z,-4.92
2022-12-17T19:53:27.369Z,-4.91
2022-12-17T19:55:52.774Z,-4.91
2022-12-17T19:58:18.576Z,-4.89
2022-12-17T20:00:44.322Z,-4.87
2022-12-17T20:03:10.164Z,-4.85
2022-12-17T20:05:35.702Z,-4.80
2022-12-17T20:08:01.275Z,-4.76
2022-12-17T20:10:26.627Z,-4.75
2022-12-17T20:12:52.013Z,-4.73
2022-12-17T20:15:17.352Z,-4.74
2022-12-17T20:17:42.689Z,-4.75
2022-12-17T20:20:09.069Z,-4.76
2022-12-17T20:22:34.809Z,-4.79
2022-12-17T20:25:02.051Z,-4.82
2022-12-17T20:27:27.580Z,-4.81
2022-12-17T20:29:53.813Z,-4.80
2022-12-17T20:32:21.595Z,-4.79
2022-12-17T20:34:47.031Z,-4.77
2022-12-17T20:37:12.599Z,-4.73
2022-12-17T20:39:38.133Z,-4.68
2022-12-17T20:42:03.678Z,-4.63
2022-12-17T20:44:29.255Z,-4.59
2022-12-17T20:46:54.915Z,-4.59
2022-12-17T20:49:20.562Z,-4.60
2022-12-17T20:51:46.046Z,-4.58
2022-12-17T20:54:12.069Z,-4.54
2022-12-17T20:56:37.399Z,-4.52
2022-12-17T20:59:04.410Z,-4.53
2022-12-17T21:01:31.038Z,-4.53
2022-12-17T21:03:57.056Z,-4.56
2022-12-17T21:06:23.211Z,-4.58
2022-12-17T21:08:50.411Z,-4.61
2022-12-17T21:11:16.637Z,-4.67
2022-12-17T21:13:42.500Z,-4.73
2022-12-17T21:16:11.298Z,-4.76
2022-12-17T21:18:37.459Z,-4.76
2022-12-17T21:21:05.241Z,-4.79
2022-12-17T21:23:30.721Z,-4.81
2022-12-17T21:26:03.925Z,-4.84
2022-12-17T21:28:35.176Z,-4.86
2022-12-17T21:31:00.550Z,-4.89
2022-12-17T21:33:25.994Z,-4.90
2022-12-17T21:35:51.529Z,-4.92
2022-12-17T21:38:17.385Z,-4.95
2022-12-17T21:40:42.734Z,-4.98
2022-12-17T21:43:08.412Z,-5.03
2022-12-17T21:45:38.524Z,-5.07
2022-12-17T21:48:04.384Z,-5.10
2022-12-17T21:50:40.557Z,-5.11
2022-12-17T21:53:06.230Z,-5.11
2022-12-17T21:55:31.635Z,-5.10
2022-12-17T21:57:57.173Z,-5.10
2022-12-17T22:00:22.719Z,-5.08
2022-12-17T22:02:48.483Z,-5.04
2022-12-17T22:05:17.834Z,-5.02
2022-12-17T22:07:44.363Z,-4.99
2022-12-17T22:10:34.528Z,-4.94
2022-12-17T22:13:23.726Z,-4.92
2022-12-17T22:15:49.147Z,-4.92
2022-12-17T22:18:14.799Z,-4.91
2022-12-17T22:20:40.306Z,-4.91
2022-12-17T22:23:06.055Z,-4.90
2022-12-17T22:25:31.718Z,-4.90
2022-12-17T22:27:57.399Z,-4.91
2022-12-17T22:30:40.496Z,-4.91
2022-12-17T22:33:38.508Z,-4.91
2022-12-17T22:38:55.781Z,-4.91
2022-12-17T22:42:10.679Z,-4.89
2022-12-17T22:44:37.807Z,-4.83
2022-12-17T22:44:45.171Z,-4.78
2022-12-17T22:47:13.453Z,-4.76
2022-12-17T22:49:39.102Z,-4.74
2022-12-17T22:52:04.907Z,-4.73
2022-12-17T22:54:30.570Z,-4.73
2022-12-17T22:57:28.625Z,-4.73
2022-12-17T22:59:42.205Z,-4.72
2022-12-17T23:02:09.412Z,-4.72
2022-12-17T23:04:34.952Z,-4.72
2022-12-17T23:07:00.708Z,-4.74
2022-12-17T23:09:27.023Z,-4.78
2022-12-17T23:11:52.380Z,-4.77
2022-12-17T23:14:18.261Z,-4.76
2022-12-17T23:16:43.918Z,-4.76
2022-12-17T23:19:09.565Z,-4.75
2022-12-17T23:21:35.148Z,-4.72
2022-12-17T23:24:00.936Z,-4.68
2022-12-17T23:26:27.138Z,-4.66
2022-12-17T23:28:57.228Z,-4.67
2022-12-17T23:31:22.890Z,-4.68
2022-12-17T23:33:48.540Z,-4.71
2022-12-17T23:36:14.697Z,-4.73
2022-12-17T23:38:40.267Z,-4.75
2022-12-17T23:41:07.190Z,-4.78
2022-12-17T23:43:32.613Z,-4.81
2022-12-17T23:46:00.171Z,-4.80
2022-12-17T23:48:25.511Z,-4.80
2022-12-17T23:50:51.076Z,-4.80
2022-12-17T23:53:16.424Z,-4.85
2022-12-17T23:55:42.115Z,-4.88
2022-12-17T23:58:07.415Z,-4.89
